Time;durP1;ratioP1;P1;durP2;ratioP2;P2;SDS_P1;SDS_P2;PMS_P1;PMS_P2;Temp;Humidity;BMP_temperature;BMP_pressure;BME280_temperature;BME280_humidity;BME280_pressure;Samples;Min_cycle;Max_cycle;Signal;HPM_P1;HPM_P2
2022/08/02 00:01:46;;;;;;;;;;;;;;;20.39;78.59;98918.09;1653831;85;20436;-75
2022/08/02 00:04:12;;;;;;;;;;;;;;;20.35;78.62;98919.11;1653938;85;20125;-73
2022/08/02 00:06:39;;;;;;;;;;;;;;;20.33;78.67;98914.49;1652856;85;20093;-73
2022/08/02 00:09:05;;;;;;;;;;;;;;;20.29;78.77;98920.91;1653414;85;20149;-73
2022/08/02 00:11:31;;;;;;;;;;;;;;;20.23;78.97;98921.05;1654012;85;21639;-73
2022/08/02 00:13:58;;;;;;;;;;;;;;;20.22;79.14;98920.23;1654198;85;20116;-74
2022/08/02 00:16:24;;;;;;;;;;;;;;;20.21;79.21;98917.23;1653983;85;20099;-75
2022/08/02 00:18:50;;;;;;;;;;;;;;;20.18;79.34;98927.17;1652277;85;20126;-74
2022/08/02 00:21:17;;;;;;;;;;;;;;;20.15;79.53;98915.50;1654097;85;20148;-73
2022/08/02 00:23:43;;;;;;;;;;;;;;;20.16;79.58;98920.38;1653918;85;21113;-73
2022/08/02 00:26:09;;;;;;;;;;;;;;;20.16;79.69;98924.42;1653946;85;20101;-74
2022/08/02 00:28:35;;;;;;;;;;;;;;;20.17;79.80;98920.16;1652815;85;20162;-74
2022/08/02 00:31:02;;;;;;;;;;;;;;;20.19;79.78;98922.06;1654606;85;20153;-74
2022/08/02 00:33:28;;;;;;;;;;;;;;;20.18;79.71;98924.99;1654177;85;20132;-74
2022/08/02 00:35:54;;;;;;;;;;;;;;;20.16;79.80;98925.78;1653976;85;21018;-73
2022/08/02 00:38:20;;;;;;;;;;;;;;;20.17;79.82;98920.67;1653306;85;20149;-74
2022/08/02 00:40:48;;;;;;;;;;;;;;;20.14;79.87;98923.34;1653891;85;20166;-73
2022/08/02 00:43:14;;;;;;;;;;;;;;;20.13;80.01;98921.69;1655844;85;20177;-74
2022/08/02 00:45:40;;;;;;;;;;;;;;;20.16;80.00;98921.20;1676729;84;20127;-74
2022/08/02 00:48:07;;;;;;;;;;;;;;;20.23;80.05;98925.11;1676587;84;21153;-73
2022/08/02 00:50:34;;;;;;;;;;;;;;;20.26;79.84;98925.45;1675835;84;20185;-74
2022/08/02 00:53:00;;;;;;;;;;;;;;;20.28;79.85;98923.86;1676539;84;20175;-73
2022/08/02 00:55:27;;;;;;;;;;;;;;;20.32;79.70;98927.70;1676678;84;20087;-73
2022/08/02 00:57:53;;;;;;;;;;;;;;;20.35;79.65;98929.09;1676723;84;20103;-74
2022/08/02 01:00:19;;;;;;;;;;;;;;;20.37;79.59;98933.17;1676520;84;21088;-73
2022/08/02 01:02:45;;;;;;;;;;;;;;;20.40;79.39;98931.34;1676504;84;20091;-73
2022/08/02 01:05:12;;;;;;;;;;;;;;;20.44;79.33;98925.72;1682183;84;20458;-73
2022/08/02 01:07:38;;;;;;;;;;;;;;;20.49;79.05;98922.30;1681370;84;20220;-75
2022/08/02 01:10:05;;;;;;;;;;;;;;;20.45;78.85;98923.31;1676734;84;20087;-73
2022/08/02 01:12:32;;;;;;;;;;;;;;;20.41;78.74;98911.37;1675785;84;21157;-73
2022/08/02 01:15:01;;;;;;;;;;;;;;;20.34;78.79;98916.11;1676432;84;20163;-73
2022/08/02 01:17:49;;;;;;;;;;;;;;;20.29;78.88;98918.73;1676263;84;20111;-74
2022/08/02 01:20:53;;;;;;;;;;;;;;;20.24;79.02;98917.30;1657700;84;20087;-74
2022/08/02 01:23:26;;;;;;;;;;;;;;;20.21;79.20;98917.76;1676639;84;20087;-74
2022/08/02 01:26:08;;;;;;;;;;;;;;;20.14;79.37;98905.78;1676389;84;21142;-73
2022/08/02 01:28:37;;;;;;;;;;;;;;;20.14;79.45;98909.01;1673752;84;20425;-72
2022/08/02 01:31:13;;;;;;;;;;;;;;;20.08;79.51;98904.58;1675573;84;20087;-73
2022/08/02 01:33:44;;;;;;;;;;;;;;;20.02;79.80;98900.97;1668845;84;20154;-73
2022/08/02 01:36:11;;;;;;;;;;;;;;;20.00;79.97;98899.58;1676620;84;20136;-73
2022/08/02 01:38:39;;;;;;;;;;;;;;;19.96;80.07;98898.45;1675218;84;21135;-73
2022/08/02 01:41:07;;;;;;;;;;;;;;;19.93;80.24;98898.94;1675648;84;20139;-73
2022/08/02 01:43:33;;;;;;;;;;;;;;;19.92;80.32;98900.81;1674813;84;20100;-73
2022/08/02 01:45:59;;;;;;;;;;;;;;;19.93;80.41;98908.38;1654165;85;20105;-74
2022/08/02 01:48:26;;;;;;;;;;;;;;;19.94;80.48;98910.03;1653283;85;20153;-72
2022/08/02 01:50:52;;;;;;;;;;;;;;;19.99;80.57;98911.47;1651205;85;21866;-73
2022/08/02 01:53:19;;;;;;;;;;;;;;;20.00;80.38;98910.37;1652969;85;20153;-73
2022/08/02 01:55:46;;;;;;;;;;;;;;;19.98;80.43;98905.77;1653841;85;20447;-73
2022/08/02 01:58:14;;;;;;;;;;;;;;;19.98;80.45;98909.81;1653830;85;20715;-72
2022/08/02 02:00:40;;;;;;;;;;;;;;;19.95;80.45;98914.34;1651671;85;20117;-74
2022/08/02 02:03:10;;;;;;;;;;;;;;;19.92;80.62;98909.46;1653768;85;21146;-74
2022/08/02 02:05:36;;;;;;;;;;;;;;;19.93;80.68;98913.25;1653962;85;20093;-74
2022/08/02 02:08:03;;;;;;;;;;;;;;;19.93;80.74;98907.86;1653647;85;20208;-74
2022/08/02 02:10:31;;;;;;;;;;;;;;;19.91;80.75;98909.16;1650758;85;20419;-72
2022/08/02 02:13:01;;;;;;;;;;;;;;;19.90;80.90;98911.56;1653577;85;20132;-72
2022/08/02 02:15:28;;;;;;;;;;;;;;;19.89;81.02;98916.69;1653909;85;22288;-74
2022/08/02 02:17:55;;;;;;;;;;;;;;;19.85;81.05;98918.22;1652774;85;20089;-74
2022/08/02 02:20:22;;;;;;;;;;;;;;;19.84;81.17;98923.35;1653535;85;20088;-74
2022/08/02 02:22:48;;;;;;;;;;;;;;;19.82;81.31;98926.27;1653519;85;20951;-74
2022/08/02 02:25:16;;;;;;;;;;;;;;;19.83;81.42;98921.70;1653837;85;20150;-74
2022/08/02 02:27:53;;;;;;;;;;;;;;;19.87;81.54;98918.79;1653947;85;21822;-74
2022/08/02 02:30:19;;;;;;;;;;;;;;;19.92;81.59;98919.70;1653957;85;20181;-72
2022/08/02 02:32:46;;;;;;;;;;;;;;;19.95;81.43;98924.62;1651154;85;20123;-72
2022/08/02 02:35:12;;;;;;;;;;;;;;;20.00;81.32;98921.18;1652739;85;20146;-74
2022/08/02 02:37:39;;;;;;;;;;;;;;;20.02;81.21;98925.83;1653849;85;20450;-73
2022/08/02 02:40:07;;;;;;;;;;;;;;;20.02;81.24;98919.08;1653883;85;21170;-73
2022/08/02 02:42:33;;;;;;;;;;;;;;;20.06;81.36;98921.04;1650940;85;20145;-73
2022/08/02 02:44:59;;;;;;;;;;;;;;;20.13;81.24;98915.46;1666238;84;20135;-73
2022/08/02 02:47:27;;;;;;;;;;;;;;;20.16;81.04;98915.80;1675980;84;20119;-73
2022/08/02 02:49:53;;;;;;;;;;;;;;;20.19;81.00;98917.19;1676659;84;20095;-73
2022/08/02 02:52:19;;;;;;;;;;;;;;;20.20;80.79;98913.44;1676672;84;21154;-72
2022/08/02 02:54:47;;;;;;;;;;;;;;;20.17;80.57;98919.33;1696332;84;20433;-73
2022/08/02 02:57:14;;;;;;;;;;;;;;;20.10;80.54;98914.62;1676796;84;20429;-72
2022/08/02 02:59:40;;;;;;;;;;;;;;;20.01;80.66;98914.73;1676717;84;20099;-73
2022/08/02 03:02:06;;;;;;;;;;;;;;;19.96;80.87;98918.17;1676488;84;20096;-72
2022/08/02 03:04:33;;;;;;;;;;;;;;;19.92;81.01;98910.25;1676586;84;21155;-72
2022/08/02 03:06:59;;;;;;;;;;;;;;;19.90;81.12;98914.27;1676782;84;20472;-71
2022/08/02 03:09:26;;;;;;;;;;;;;;;19.88;81.16;98916.39;1677039;84;20146;-72
2022/08/02 03:11:53;;;;;;;;;;;;;;;19.86;81.34;98919.34;1675902;84;20095;-73
2022/08/02 03:14:20;;;;;;;;;;;;;;;19.88;81.38;98913.69;1671356;84;20090;-72
2022/08/02 03:16:47;;;;;;;;;;;;;;;19.84;81.51;98916.60;1676330;84;21138;-73
2022/08/02 03:19:13;;;;;;;;;;;;;;;19.82;81.60;98922.23;1675962;84;20099;-72
2022/08/02 03:21:41;;;;;;;;;;;;;;;19.84;81.77;98924.70;1675846;84;20116;-73
2022/08/02 03:24:08;;;;;;;;;;;;;;;19.87;81.77;98931.77;1676597;84;20110;-73
2022/08/02 03:26:34;;;;;;;;;;;;;;;19.89;81.75;98933.71;1676534;84;20158;-72
2022/08/02 03:29:01;;;;;;;;;;;;;;;19.91;81.79;98932.11;1676677;84;21180;-73
2022/08/02 03:31:27;;;;;;;;;;;;;;;19.93;81.77;98936.72;1676396;84;20176;-73
2022/08/02 03:33:54;;;;;;;;;;;;;;;19.94;81.79;98943.25;1675884;84;20154;-73
2022/08/02 03:36:21;;;;;;;;;;;;;;;19.94;81.67;98939.72;1676713;84;20099;-72
2022/08/02 03:38:48;;;;;;;;;;;;;;;19.97;81.69;98945.98;1676588;84;20138;-72
2022/08/02 03:41:15;;;;;;;;;;;;;;;20.02;81.55;98948.22;1676729;84;21152;-73
2022/08/02 03:43:43;;;;;;;;;;;;;;;20.07;81.44;98944.81;1676631;84;20095;-73
2022/08/02 03:46:09;;;;;;;;;;;;;;;20.13;81.39;98945.16;1655958;84;20093;-74
2022/08/02 03:48:35;;;;;;;;;;;;;;;20.19;81.26;98942.32;1653490;87;20184;-73
2022/08/02 03:51:02;;;;;;;;;;;;;;;20.26;81.04;98951.63;1653493;85;20189;-72
2022/08/02 03:53:28;;;;;;;;;;;;;;;20.29;80.80;98948.44;1653610;85;21170;-73
2022/08/02 03:55:54;;;;;;;;;;;;;;;20.33;80.53;98953.09;1653657;85;20105;-73
2022/08/02 03:58:22;;;;;;;;;;;;;;;20.38;80.24;98949.69;1654031;85;20101;-74
2022/08/02 04:00:48;;;;;;;;;;;;;;;20.42;80.06;98948.64;1651666;85;20151;-73
2022/08/02 04:03:14;;;;;;;;;;;;;;;20.43;79.88;98951.64;1653999;85;20424;-73
2022/08/02 04:05:40;;;;;;;;;;;;;;;20.46;79.58;98956.55;1654060;85;21149;-73
2022/08/02 04:08:07;;;;;;;;;;;;;;;20.48;79.53;98958.47;1653967;85;20101;-73
2022/08/02 04:11:29;;;;;;;;;;;;;;;20.50;79.39;98959.03;1651109;85;20105;-73
2022/08/02 04:13:04;;;;;;;;;;;;;;;20.52;79.18;98955.58;1657012;84;20553;-72
2022/08/02 04:15:31;;;;;;;;;;;;;;;20.57;79.19;98957.80;1654001;85;20190;-72
2022/08/02 04:17:57;;;;;;;;;;;;;;;20.65;78.92;98956.59;1653019;85;21804;-73
2022/08/02 04:20:27;;;;;;;;;;;;;;;20.72;78.63;98954.53;1653224;85;20113;-72
2022/08/02 04:23:02;;;;;;;;;;;;;;;20.78;78.41;98957.04;1653687;85;20085;-73
2022/08/02 04:25:28;;;;;;;;;;;;;;;20.86;78.11;98955.27;1649903;85;20120;-73
2022/08/02 04:27:54;;;;;;;;;;;;;;;20.90;77.60;98955.59;1654078;85;20093;-73
2022/08/02 04:30:20;;;;;;;;;;;;;;;20.90;77.31;98950.19;1654729;85;21832;-73
2022/08/02 04:32:47;;;;;;;;;;;;;;;20.96;77.04;98955.14;1651133;85;20161;-73
2022/08/02 04:35:13;;;;;;;;;;;;;;;21.02;76.90;98959.00;1654359;85;20089;-74
2022/08/02 04:37:40;;;;;;;;;;;;;;;21.09;76.70;98954.81;1629725;87;20504;-73
2022/08/02 04:40:10;;;;;;;;;;;;;;;21.15;76.31;98960.55;1654480;85;20129;-74
2022/08/02 04:42:37;;;;;;;;;;;;;;;21.22;75.96;98962.00;1653868;85;21134;-74
2022/08/02 04:45:04;;;;;;;;;;;;;;;21.31;75.54;98959.67;1661309;85;20142;-73
2022/08/02 04:47:30;;;;;;;;;;;;;;;21.37;75.18;98961.39;1684644;84;20096;-72
2022/08/02 04:49:56;;;;;;;;;;;;;;;21.44;74.83;98953.88;1684458;84;20093;-73
2022/08/02 04:52:23;;;;;;;;;;;;;;;21.55;74.65;98957.00;1684509;84;20089;-73
2022/08/02 04:54:50;;;;;;;;;;;;;;;21.67;74.34;98957.66;1682161;84;21122;-73
2022/08/02 05:00:02;;;;;;;;;;;;;;;21.98;73.50;98955.58;1684561;84;20126;-74
2022/08/02 05:02:28;;;;;;;;;;;;;;;22.43;73.20;98952.99;1684530;84;20802;-73
2022/08/02 05:04:54;;;;;;;;;;;;;;;23.34;71.35;98949.77;1682784;84;20148;-73
2022/08/02 05:07:20;;;;;;;;;;;;;;;24.27;68.20;98948.42;1684295;84;21143;-74
2022/08/02 05:09:47;;;;;;;;;;;;;;;25.09;65.07;98953.49;1684251;84;20426;-74
2022/08/02 05:12:13;;;;;;;;;;;;;;;25.58;62.56;98950.33;1679663;84;20143;-74
2022/08/02 05:14:39;;;;;;;;;;;;;;;25.76;60.63;98953.77;1683100;84;20444;-75
2022/08/02 05:17:06;;;;;;;;;;;;;;;25.74;59.37;98947.80;1683920;84;20184;-75
2022/08/02 05:19:32;;;;;;;;;;;;;;;25.64;58.92;98951.13;1684431;84;21108;-70
2022/08/02 05:21:58;;;;;;;;;;;;;;;25.59;58.97;98956.05;1683995;84;20176;-72
2022/08/02 05:24:25;;;;;;;;;;;;;;;25.57;58.71;98960.16;1684527;84;20085;-71
2022/08/02 05:26:51;;;;;;;;;;;;;;;25.69;58.70;98963.34;1683352;84;20654;-72
2022/08/02 05:29:17;;;;;;;;;;;;;;;26.10;58.12;98970.72;1684227;84;20106;-72
2022/08/02 05:31:44;;;;;;;;;;;;;;;26.78;56.51;98966.95;1674054;84;21124;-71
2022/08/02 05:34:10;;;;;;;;;;;;;;;27.45;54.99;98959.13;1684403;84;20146;-74
2022/08/02 05:36:37;;;;;;;;;;;;;;;28.21;53.23;98953.98;1683613;84;20128;-75
2022/08/02 05:39:03;;;;;;;;;;;;;;;28.72;50.49;98955.35;1706922;84;20134;-76
2022/08/02 05:41:29;;;;;;;;;;;;;;;28.72;50.09;98963.02;1708464;84;20167;-76
2022/08/02 05:43:56;;;;;;;;;;;;;;;28.63;50.10;98957.95;1708497;84;21281;-75
2022/08/02 05:46:23;;;;;;;;;;;;;;;28.54;49.70;98970.69;1692268;84;20117;-78
2022/08/02 05:48:49;;;;;;;;;;;;;;;28.50;49.78;98970.19;1695097;84;20163;-76
2022/08/02 05:51:36;;;;;;;;;;;;;;;28.47;49.53;98973.55;1688954;83;20152;-78
2022/08/02 05:54:24;;;;;;;;;;;;;;;28.33;49.21;98983.06;1662375;85;20166;-76
2022/08/02 05:56:57;;;;;;;;;;;;;;;27.96;49.36;98986.59;1704456;83;21135;-75
2022/08/02 05:59:32;;;;;;;;;;;;;;;27.49;49.77;98990.77;1691408;85;20094;-75
2022/08/02 06:02:03;;;;;;;;;;;;;;;27.60;50.47;98984.09;1692329;84;20150;-74
2022/08/02 06:04:33;;;;;;;;;;;;;;;28.44;49.11;98988.64;1701461;84;20444;-76
2022/08/02 06:07:01;;;;;;;;;;;;;;;29.42;46.69;98983.89;1687558;83;20171;-74
2022/08/02 06:09:28;;;;;;;;;;;;;;;30.24;45.32;98981.29;1687136;84;21172;-75
2022/08/02 06:11:57;;;;;;;;;;;;;;;31.23;43.35;98975.48;1689888;84;20079;-74
2022/08/02 06:14:23;;;;;;;;;;;;;;;32.07;41.37;98973.30;1699636;84;20138;-75
2022/08/02 06:16:49;;;;;;;;;;;;;;;32.62;39.61;98972.08;1679351;84;21000;-76
2022/08/02 06:19:17;;;;;;;;;;;;;;;33.22;38.48;98973.87;1679645;85;20097;-76
2022/08/02 06:21:44;;;;;;;;;;;;;;;33.81;37.47;98969.21;1686448;84;21129;-74
2022/08/02 06:24:10;;;;;;;;;;;;;;;34.36;35.95;98963.45;1687973;84;20431;-76
2022/08/02 06:26:37;;;;;;;;;;;;;;;34.97;34.90;98965.27;1679040;84;20182;-75
2022/08/02 06:29:03;;;;;;;;;;;;;;;35.03;34.26;98964.47;1679554;84;20156;-74
2022/08/02 06:31:29;;;;;;;;;;;;;;;35.33;33.74;98961.19;1679618;84;20113;-73
2022/08/02 06:33:56;;;;;;;;;;;;;;;35.19;33.33;98964.07;1681232;84;21157;-73
2022/08/02 06:36:40;;;;;;;;;;;;;;;34.93;33.52;98971.83;1682575;84;20377;-74
2022/08/02 06:39:24;;;;;;;;;;;;;;;34.55;33.72;98972.02;1701707;84;20090;-75
2022/08/02 06:41:52;;;;;;;;;;;;;;;33.95;34.28;98976.08;1701681;84;20138;-76
2022/08/02 06:44:22;;;;;;;;;;;;;;;33.77;34.78;98982.86;1681530;83;20459;-74
2022/08/02 06:46:48;;;;;;;;;;;;;;;33.66;34.89;98988.52;1689917;84;21148;-74
2022/08/02 06:49:14;;;;;;;;;;;;;;;33.65;34.73;98992.43;1669695;86;20111;-74
2022/08/02 06:51:41;;;;;;;;;;;;;;;33.14;35.28;98992.65;1692457;85;20464;-74
2022/08/02 06:54:07;;;;;;;;;;;;;;;32.54;36.02;98985.28;1702010;84;20106;-74
2022/08/02 06:56:33;;;;;;;;;;;;;;;31.69;37.54;98985.44;1685934;84;20083;-74
2022/08/02 06:59:00;;;;;;;;;;;;;;;31.32;38.66;98987.31;1691442;84;21245;-73
2022/08/02 07:01:26;;;;;;;;;;;;;;;30.93;39.26;98992.78;1681992;84;20396;-75
2022/08/02 07:03:52;;;;;;;;;;;;;;;30.51;39.52;98998.21;1702199;84;20103;-74
2022/08/02 07:06:18;;;;;;;;;;;;;;;30.02;40.32;98996.33;1694280;84;20140;-74
2022/08/02 07:08:44;;;;;;;;;;;;;;;29.81;40.73;99000.63;1688192;84;20122;-74
2022/08/02 07:11:11;;;;;;;;;;;;;;;30.02;40.97;98992.77;1680576;84;21291;-71
2022/08/02 07:13:38;;;;;;;;;;;;;;;30.96;39.45;99007.26;1683280;84;20181;-76
2022/08/02 07:16:05;;;;;;;;;;;;;;;31.73;37.95;98996.03;1688906;84;20122;-72
2022/08/02 07:18:32;;;;;;;;;;;;;;;32.67;35.74;98997.28;1687820;84;20448;-71
2022/08/02 07:20:58;;;;;;;;;;;;;;;33.64;34.40;98991.36;1672941;85;20198;-72
2022/08/02 07:23:24;;;;;;;;;;;;;;;34.36;32.80;98993.82;1680221;85;21142;-70
2022/08/02 07:25:51;;;;;;;;;;;;;;;35.14;31.09;98996.89;1645623;85;20145;-71
2022/08/02 07:28:17;;;;;;;;;;;;;;;35.94;29.58;98991.03;1680134;84;20105;-72
2022/08/02 07:30:43;;;;;;;;;;;;;;;36.59;28.49;98991.80;1679937;84;20626;-74
2022/08/02 07:33:09;;;;;;;;;;;;;;;37.24;27.25;98988.20;1680035;84;20101;-71
2022/08/02 07:35:36;;;;;;;;;;;;;;;37.63;26.14;98983.88;1690656;84;21147;-70
2022/08/02 07:38:02;;;;;;;;;;;;;;;37.92;25.80;98981.77;1690651;84;20443;-72
2022/08/02 07:40:28;;;;;;;;;;;;;;;38.27;25.75;98975.03;1690611;84;20139;-71
2022/08/02 07:43:13;;;;;;;;;;;;;;;38.85;24.89;98979.99;1690608;84;20421;-72
2022/08/02 07:45:40;;;;;;;;;;;;;;;39.44;23.90;98977.27;1690441;83;20234;-72
2022/08/02 07:48:07;;;;;;;;;;;;;;;39.64;23.63;98982.98;1692485;84;21134;-71
2022/08/02 07:50:33;;;;;;;;;;;;;;;39.92;22.96;98972.84;1692247;84;20088;-72
2022/08/02 07:53:00;;;;;;;;;;;;;;;39.79;22.99;98975.67;1692304;84;20453;-72
2022/08/02 07:55:26;;;;;;;;;;;;;;;39.15;23.78;98978.75;1692440;84;20129;-72
2022/08/02 07:57:52;;;;;;;;;;;;;;;39.41;23.58;98977.44;1692358;84;20099;-71
2022/08/02 08:00:19;;;;;;;;;;;;;;;40.12;22.93;98974.36;1692452;84;20716;-72
2022/08/02 08:02:45;;;;;;;;;;;;;;;40.84;22.00;98983.20;1692366;84;20087;-72
2022/08/02 08:05:12;;;;;;;;;;;;;;;41.20;21.13;98982.38;1679954;84;20122;-71
2022/08/02 08:07:38;;;;;;;;;;;;;;;41.44;20.80;98983.00;1690646;84;20123;-72
2022/08/02 08:10:06;;;;;;;;;;;;;;;41.75;20.46;98984.66;1690627;85;20436;-73
2022/08/02 08:12:33;;;;;;;;;;;;;;;41.58;20.66;98985.91;1680055;84;21579;-72
2022/08/02 08:14:59;;;;;;;;;;;;;;;40.66;21.24;98988.59;1690594;84;20108;-72
2022/08/02 08:17:25;;;;;;;;;;;;;;;39.36;22.47;98988.07;1690723;84;20445;-72
2022/08/02 08:19:52;;;;;;;;;;;;;;;38.31;23.59;98997.34;1662980;86;20358;-71
2022/08/02 08:22:19;;;;;;;;;;;;;;;37.42;24.96;98991.68;1692500;84;20099;-72
2022/08/02 08:24:46;;;;;;;;;;;;;;;36.59;25.24;98994.56;1679937;84;21177;-71
2022/08/02 08:27:15;;;;;;;;;;;;;;;35.85;25.98;98993.11;1690596;84;20127;-73
2022/08/02 08:29:42;;;;;;;;;;;;;;;35.08;26.76;98995.50;1690656;84;20079;-72
2022/08/02 08:32:08;;;;;;;;;;;;;;;34.89;27.37;98992.98;1690634;84;20179;-72
2022/08/02 08:34:34;;;;;;;;;;;;;;;35.79;26.69;98989.55;1680152;84;20102;-70
2022/08/02 08:37:02;;;;;;;;;;;;;;;36.91;24.93;98990.72;1690690;84;21139;-70
2022/08/02 08:39:29;;;;;;;;;;;;;;;36.88;25.06;98987.84;1690614;83;20516;-71
2022/08/02 08:41:55;;;;;;;;;;;;;;;37.64;24.31;98991.05;1690730;84;20099;-73
2022/08/02 08:44:22;;;;;;;;;;;;;;;38.53;23.57;98991.06;1690702;84;20140;-71
2022/08/02 08:46:48;;;;;;;;;;;;;;;38.92;22.92;98993.81;1690870;84;20171;-72
2022/08/02 08:49:25;;;;;;;;;;;;;;;37.78;23.23;98995.31;1663100;86;21151;-73
2022/08/02 08:51:53;;;;;;;;;;;;;;;36.19;24.77;99009.79;1692410;84;20087;-72
2022/08/02 08:54:20;;;;;;;;;;;;;;;34.81;26.46;99005.75;1679913;84;20303;-70
2022/08/02 08:56:47;;;;;;;;;;;;;;;33.87;27.78;99010.05;1679978;84;20108;-71
2022/08/02 08:59:13;;;;;;;;;;;;;;;34.25;27.66;99003.08;1680007;84;20105;-72
2022/08/02 09:01:39;;;;;;;;;;;;;;;35.54;26.75;99007.33;1690674;84;21140;-72
2022/08/02 09:04:05;;;;;;;;;;;;;;;37.14;24.94;98999.26;1690479;84;20438;-71
2022/08/02 09:06:49;;;;;;;;;;;;;;;38.60;23.12;98991.20;1818667;79;20153;-73
2022/08/02 09:09:16;;;;;;;;;;;;;;;39.48;22.44;98990.64;1793877;80;20088;-71
2022/08/02 09:11:43;;;;;;;;;;;;;;;40.11;20.79;98984.47;1785265;80;21992;-73
2022/08/02 09:14:10;;;;;;;;;;;;;;;40.11;21.10;98988.06;1778818;80;20115;-72
2022/08/02 09:16:38;;;;;;;;;;;;;;;40.21;20.88;98999.12;1794259;80;20076;-72
2022/08/02 09:19:25;;;;;;;;;;;;;;;38.88;21.33;98997.91;1775975;80;20490;-70
2022/08/02 09:21:53;;;;;;;;;;;;;;;38.08;21.81;99004.17;1782545;80;20122;-71
2022/08/02 09:24:21;;;;;;;;;;;;;;;38.34;21.99;98999.39;1777405;80;21805;-72
2022/08/02 09:26:48;;;;;;;;;;;;;;;38.52;21.70;98995.00;1791850;80;20151;-73
2022/08/02 09:29:15;;;;;;;;;;;;;;;38.29;22.01;99003.83;1791822;80;20080;-71
2022/08/02 09:31:41;;;;;;;;;;;;;;;37.75;22.64;99009.33;1793564;80;20103;-71
2022/08/02 09:34:07;;;;;;;;;;;;;;;36.62;23.87;99009.11;1792029;80;20092;-71
2022/08/02 09:36:44;;;;;;;;;;;;;;;35.29;25.31;99002.32;1775724;80;21060;-71
2022/08/02 09:39:12;;;;;;;;;;;;;;;34.06;27.01;99009.06;1760674;80;20100;-70
2022/08/02 09:41:40;;;;;;;;;;;;;;;33.13;27.97;99018.58;1776383;80;20080;-71
2022/08/02 09:44:11;;;;;;;;;;;;;;;32.36;29.18;99015.30;1769813;80;20087;-70
2022/08/02 09:46:40;;;;;;;;;;;;;;;31.64;30.26;99022.70;1791891;80;20092;-73
2022/08/02 09:49:15;;;;;;;;;;;;;;;31.29;31.24;99018.75;1767001;80;21290;-71
2022/08/02 09:51:48;;;;;;;;;;;;;;;31.21;31.51;99025.02;1757884;80;20083;-72
2022/08/02 09:54:20;;;;;;;;;;;;;;;31.03;31.72;99030.95;1762075;80;20075;-71
2022/08/02 09:56:58;;;;;;;;;;;;;;;30.64;32.28;99026.16;1788375;80;20430;-71
2022/08/02 09:59:25;;;;;;;;;;;;;;;30.33;33.10;99023.86;1769221;80;20084;-71
2022/08/02 10:01:52;;;;;;;;;;;;;;;30.29;33.33;99020.95;1791741;80;21636;-70
2022/08/02 10:04:21;;;;;;;;;;;;;;;30.27;33.08;99024.53;1791828;80;20162;-71
2022/08/02 10:06:48;;;;;;;;;;;;;;;30.24;33.27;99018.33;1784662;80;20439;-71
2022/08/02 10:09:14;;;;;;;;;;;;;;;30.17;32.62;99019.29;1780154;80;20113;-71
2022/08/02 10:11:41;;;;;;;;;;;;;;;30.05;33.11;99025.88;1779640;80;20106;-70
2022/08/02 10:14:09;;;;;;;;;;;;;;;29.94;33.15;99025.29;1783660;80;21224;-72
2022/08/02 10:16:37;;;;;;;;;;;;;;;29.87;33.27;99021.34;1749518;80;20111;-71
2022/08/02 10:19:04;;;;;;;;;;;;;;;29.84;33.23;99026.07;1741645;80;20103;-71
2022/08/02 10:21:45;;;;;;;;;;;;;;;29.77;33.64;99025.65;1746977;80;20094;-71
2022/08/02 10:24:13;;;;;;;;;;;;;;;29.75;33.50;99016.34;1762708;80;20092;-70
2022/08/02 10:26:42;;;;;;;;;;;;;;;29.62;33.66;99015.80;1756796;80;21165;-70
2022/08/02 10:29:09;;;;;;;;;;;;;;;29.60;34.41;99010.37;1768625;80;20421;-70
2022/08/02 10:31:42;;;;;;;;;;;;;;;29.76;34.13;98997.97;1747418;81;20119;-70
2022/08/02 10:34:10;;;;;;;;;;;;;;;29.97;34.28;99008.78;1731085;80;20109;-71
2022/08/02 10:36:36;;;;;;;;;;;;;;;30.11;32.51;99008.20;1762699;79;20136;-72
2022/08/02 10:39:03;;;;;;;;;;;;;;;30.09;32.14;99009.63;1720025;80;21070;-72
2022/08/02 10:41:44;;;;;;;;;;;;;;;30.04;32.38;99011.09;1761361;79;20205;-72
2022/08/02 10:44:27;;;;;;;;;;;;;;;29.89;33.14;99014.44;1752348;80;20183;-70
2022/08/02 10:47:22;;;;;;;;;;;;;;;29.84;34.37;99018.66;1770372;80;20126;-71
2022/08/02 10:49:57;;;;;;;;;;;;;;;29.94;34.18;99016.25;1747006;80;20235;-72
2022/08/02 10:52:26;;;;;;;;;;;;;;;30.07;34.00;99011.84;1770316;79;21133;-71
2022/08/02 10:55:02;;;;;;;;;;;;;;;30.21;33.97;99007.15;1750107;80;20240;-71
2022/08/02 10:57:30;;;;;;;;;;;;;;;30.27;33.03;99005.33;1748813;80;20087;-71
2022/08/02 10:59:59;;;;;;;;;;;;;;;30.29;32.69;98997.63;1768660;80;20111;-70
2022/08/02 11:02:45;;;;;;;;;;;;;;;30.34;32.72;99002.99;1748341;80;20072;-71
2022/08/02 11:05:28;;;;;;;;;;;;;;;30.38;32.16;99008.68;1763629;80;21118;-70
2022/08/02 11:07:54;;;;;;;;;;;;;;;30.11;31.84;99002.72;1759839;80;20089;-72
2022/08/02 11:10:27;;;;;;;;;;;;;;;29.92;32.29;99006.97;1754943;80;20082;-72
2022/08/02 11:13:01;;;;;;;;;;;;;;;29.94;32.72;99003.36;1776816;80;20215;-74
2022/08/02 11:15:28;;;;;;;;;;;;;;;30.00;32.28;99006.80;1754997;81;20098;-72
2022/08/02 11:17:55;;;;;;;;;;;;;;;29.96;31.76;98997.55;1775907;80;21139;-72
2022/08/02 11:20:22;;;;;;;;;;;;;;;29.92;32.05;98996.56;1754959;80;20094;-71
2022/08/02 11:22:51;;;;;;;;;;;;;;;29.88;32.30;99001.02;1754935;80;20093;-72
2022/08/02 11:25:26;;;;;;;;;;;;;;;29.75;32.25;99001.82;1754899;80;20086;-71
2022/08/02 11:27:55;;;;;;;;;;;;;;;29.63;32.30;99001.53;1765220;80;20628;-72
2022/08/02 11:30:21;;;;;;;;;;;;;;;29.49;32.39;99004.86;1782044;80;21174;-72
2022/08/02 11:32:47;;;;;;;;;;;;;;;29.36;32.47;99007.83;1751318;81;20436;-71
2022/08/02 11:35:14;;;;;;;;;;;;;;;29.26;33.00;99007.48;1775433;80;20068;-70
2022/08/02 11:37:42;;;;;;;;;;;;;;;29.27;33.57;98999.53;1763998;80;20092;-70
2022/08/02 11:40:14;;;;;;;;;;;;;;;29.32;32.91;98999.43;1766842;80;20071;-70
2022/08/02 11:42:43;;;;;;;;;;;;;;;29.34;32.60;98998.56;1752882;80;20646;-71
2022/08/02 11:45:10;;;;;;;;;;;;;;;29.32;32.71;98998.06;1771797;80;20080;-72
2022/08/02 11:47:46;;;;;;;;;;;;;;;29.28;32.63;98991.55;1759179;80;20086;-70
2022/08/02 11:50:13;;;;;;;;;;;;;;;29.17;32.96;98988.74;1754797;80;20124;-70
2022/08/02 11:52:39;;;;;;;;;;;;;;;29.05;33.01;98988.95;1781063;80;20450;-71
2022/08/02 11:55:06;;;;;;;;;;;;;;;28.94;32.80;98983.44;1772235;80;21165;-72
2022/08/02 11:57:34;;;;;;;;;;;;;;;28.83;32.43;98978.70;1754916;80;20138;-71
2022/08/02 12:00:00;;;;;;;;;;;;;;;28.72;31.85;98982.72;1755008;81;20111;-71
2022/08/02 12:02:27;;;;;;;;;;;;;;;28.64;32.33;98983.41;1754990;82;20444;-71
2022/08/02 12:04:56;;;;;;;;;;;;;;;28.65;32.77;98980.94;1785083;80;20223;-71
2022/08/02 12:07:32;;;;;;;;;;;;;;;28.72;33.21;98986.83;1772535;80;21798;-70
2022/08/02 12:10:00;;;;;;;;;;;;;;;28.81;33.80;98979.53;1777221;80;20081;-70
2022/08/02 12:12:26;;;;;;;;;;;;;;;28.87;34.29;98983.81;1771754;80;20081;-71
2022/08/02 12:14:52;;;;;;;;;;;;;;;28.81;33.78;98978.16;1770983;80;20120;-70
2022/08/02 12:20:09;;;;;;;;;;;;;;;28.66;34.02;98977.89;1748255;80;21159;-69
2022/08/02 12:22:36;;;;;;;;;;;;;;;28.69;33.99;98977.84;1752640;80;20103;-71
2022/08/02 12:25:17;;;;;;;;;;;;;;;28.81;33.66;98978.16;1748586;80;20433;-70
2022/08/02 12:27:44;;;;;;;;;;;;;;;28.92;33.64;98980.16;1746805;81;20123;-71
2022/08/02 12:30:12;;;;;;;;;;;;;;;28.97;33.48;98976.78;1725484;82;20469;-70
2022/08/02 12:32:39;;;;;;;;;;;;;;;29.00;33.25;98978.09;1756191;80;21137;-70
2022/08/02 12:35:13;;;;;;;;;;;;;;;28.99;33.08;98975.13;1758848;80;20083;-70
2022/08/02 12:37:46;;;;;;;;;;;;;;;28.92;32.29;98977.42;1746796;81;20202;-73
2022/08/02 12:40:23;;;;;;;;;;;;;;;28.80;31.71;98973.82;1765675;80;20081;-72
2022/08/02 12:42:51;;;;;;;;;;;;;;;28.68;32.08;98971.55;1779198;80;20116;-70
2022/08/02 12:45:17;;;;;;;;;;;;;;;28.61;32.17;98975.76;1783109;80;21145;-72
2022/08/02 12:47:47;;;;;;;;;;;;;;;28.54;32.03;98972.60;1778061;80;20108;-71
2022/08/02 12:50:20;;;;;;;;;;;;;;;28.46;32.18;98971.36;1760846;80;20123;-71
2022/08/02 12:52:47;;;;;;;;;;;;;;;28.42;32.71;98970.91;1751554;80;20101;-70
2022/08/02 12:55:15;;;;;;;;;;;;;;;28.38;32.94;98967.12;1778062;80;20143;-70
2022/08/02 12:57:55;;;;;;;;;;;;;;;28.48;33.69;98973.79;1781652;80;21909;-70
2022/08/02 13:00:23;;;;;;;;;;;;;;;28.54;33.64;98974.79;1735097;82;20091;-71